sensor_id;sensor_type;location;lat;lon;timestamp;temperature;humidity
37874;DHT22;23709;48.078;11.684;2023-05-10T00:02:19;13.60;99.90
37874;DHT22;23709;48.078;11.684;2023-05-10T00:04:51;13.60;99.90
37874;DHT22;23709;48.078;11.684;2023-05-10T00:07:24;13.60;99.90
37874;DHT22;23709;48.078;11.684;2023-05-10T00:09:57;13.60;99.90
37874;DHT22;23709;48.078;11.684;2023-05-10T00:12:29;13.60;99.90
37874;DHT22;23709;48.078;11.684;2023-05-10T00:15:01;13.70;99.90
37874;DHT22;23709;48.078;11.684;2023-05-10T00:17:35;13.60;99.90
37874;DHT22;23709;48.078;11.684;2023-05-10T00:20:07;13.60;99.90
37874;DHT22;23709;48.078;11.684;2023-05-10T00:22:40;13.60;99.90
37874;DHT22;23709;48.078;11.684;2023-05-10T00:25:12;13.50;99.90
37874;DHT22;23709;48.078;11.684;2023-05-10T00:27:45;13.50;99.90
37874;DHT22;23709;48.078;11.684;2023-05-10T00:30:17;13.50;99.90
37874;DHT22;23709;48.078;11.684;2023-05-10T00:32:50;13.60;99.90
37874;DHT22;23709;48.078;11.684;2023-05-10T00:35:23;13.50;99.90
37874;DHT22;23709;48.078;11.684;2023-05-10T00:37:56;13.50;99.90
37874;DHT22;23709;48.078;11.684;2023-05-10T00:40:28;13.50;99.90
37874;DHT22;23709;48.078;11.684;2023-05-10T00:43:04;13.60;99.90
37874;DHT22;23709;48.078;11.684;2023-05-10T00:45:37;13.50;99.90
37874;DHT22;23709;48.078;11.684;2023-05-10T00:48:11;13.50;99.90
37874;DHT22;23709;48.078;11.684;2023-05-10T00:50:44;13.50;99.90
37874;DHT22;23709;48.078;11.684;2023-05-10T00:53:17;13.50;99.90
37874;DHT22;23709;48.078;11.684;2023-05-10T00:55:49;13.50;99.90
37874;DHT22;23709;48.078;11.684;2023-05-10T00:58:23;13.50;99.90
37874;DHT22;23709;48.078;11.684;2023-05-10T01:01:00;13.50;99.90
37874;DHT22;23709;48.078;11.684;2023-05-10T01:03:33;13.50;99.90
37874;DHT22;23709;48.078;11.684;2023-05-10T01:06:06;13.50;99.90
37874;DHT22;23709;48.078;11.684;2023-05-10T01:08:39;13.50;99.90
37874;DHT22;23709;48.078;11.684;2023-05-10T01:11:11;13.50;99.90
37874;DHT22;23709;48.078;11.684;2023-05-10T01:13:55;13.50;99.90
37874;DHT22;23709;48.078;11.684;2023-05-10T01:16:32;13.50;99.90
37874;DHT22;23709;48.078;11.684;2023-05-10T01:19:22;13.50;99.90
37874;DHT22;23709;48.078;11.684;2023-05-10T01:30:35;13.30;99.90
37874;DHT22;23709;48.078;11.684;2023-05-10T01:33:23;13.20;99.90
37874;DHT22;23709;48.078;11.684;2023-05-10T01:38:53;13.30;99.90
37874;DHT22;23709;48.078;11.684;2023-05-10T01:41:45;13.20;99.90
37874;DHT22;23709;48.078;11.684;2023-05-10T01:45:14;13.20;99.90
37874;DHT22;23709;48.078;11.684;2023-05-10T01:47:40;13.20;99.90
37874;DHT22;23709;48.078;11.684;2023-05-10T01:50:20;13.20;99.90
37874;DHT22;23709;48.078;11.684;2023-05-10T01:52:56;13.20;99.90
37874;DHT22;23709;48.078;11.684;2023-05-10T01:55:32;13.20;99.90
37874;DHT22;23709;48.078;11.684;2023-05-10T01:58:12;13.20;99.90
37874;DHT22;23709;48.078;11.684;2023-05-10T02:00:46;13.20;99.90
37874;DHT22;23709;48.078;11.684;2023-05-10T02:03:22;13.20;99.90
37874;DHT22;23709;48.078;11.684;2023-05-10T02:05:56;13.10;99.90
37874;DHT22;23709;48.078;11.684;2023-05-10T02:08:29;13.20;99.90
37874;DHT22;23709;48.078;11.684;2023-05-10T02:11:03;13.20;99.90
37874;DHT22;23709;48.078;11.684;2023-05-10T02:13:39;13.20;99.90
37874;DHT22;23709;48.078;11.684;2023-05-10T02:16:12;13.20;99.90
37874;DHT22;23709;48.078;11.684;2023-05-10T02:18:47;13.30;99.90
37874;DHT22;23709;48.078;11.684;2023-05-10T02:21:21;13.20;99.90
37874;DHT22;23709;48.078;11.684;2023-05-10T02:23:55;13.30;99.90
37874;DHT22;23709;48.078;11.684;2023-05-10T02:26:29;13.30;99.90
37874;DHT22;23709;48.078;11.684;2023-05-10T02:29:03;13.30;99.90
37874;DHT22;23709;48.078;11.684;2023-05-10T02:31:38;13.30;99.90
37874;DHT22;23709;48.078;11.684;2023-05-10T02:34:11;13.30;99.90
37874;DHT22;23709;48.078;11.684;2023-05-10T02:36:44;13.30;99.90
37874;DHT22;23709;48.078;11.684;2023-05-10T02:39:21;13.30;99.90
37874;DHT22;23709;48.078;11.684;2023-05-10T02:41:54;13.30;99.90
37874;DHT22;23709;48.078;11.684;2023-05-10T02:44:29;13.30;99.90
37874;DHT22;23709;48.078;11.684;2023-05-10T02:47:03;13.30;99.90
37874;DHT22;23709;48.078;11.684;2023-05-10T02:49:35;13.30;99.90
37874;DHT22;23709;48.078;11.684;2023-05-10T02:52:08;13.30;99.90
37874;DHT22;23709;48.078;11.684;2023-05-10T02:54:43;13.30;99.90
37874;DHT22;23709;48.078;11.684;2023-05-10T02:57:17;13.20;99.90
37874;DHT22;23709;48.078;11.684;2023-05-10T02:59:53;13.20;99.90
37874;DHT22;23709;48.078;11.684;2023-05-10T03:02:25;13.10;99.90
37874;DHT22;23709;48.078;11.684;2023-05-10T03:04:58;13.20;99.90
37874;DHT22;23709;48.078;11.684;2023-05-10T03:07:32;13.20;99.90
37874;DHT22;23709;48.078;11.684;2023-05-10T03:10:05;13.20;99.90
37874;DHT22;23709;48.078;11.684;2023-05-10T03:16:12;13.20;99.90
37874;DHT22;23709;48.078;11.684;2023-05-10T03:19:00;13.20;99.90
37874;DHT22;23709;48.078;11.684;2023-05-10T03:21:37;13.20;99.90
37874;DHT22;23709;48.078;11.684;2023-05-10T03:24:15;13.20;99.90
37874;DHT22;23709;48.078;11.684;2023-05-10T03:26:50;13.20;99.90
37874;DHT22;23709;48.078;11.684;2023-05-10T03:29:26;13.10;99.90
37874;DHT22;23709;48.078;11.684;2023-05-10T03:31:59;13.10;99.90
37874;DHT22;23709;48.078;11.684;2023-05-10T03:34:34;13.10;99.90
37874;DHT22;23709;48.078;11.684;2023-05-10T03:37:13;13.00;99.90
37874;DHT22;23709;48.078;11.684;2023-05-10T03:39:46;13.10;99.90
37874;DHT22;23709;48.078;11.684;2023-05-10T03:42:19;13.10;99.90
37874;DHT22;23709;48.078;11.684;2023-05-10T03:44:51;13.00;99.90
37874;DHT22;23709;48.078;11.684;2023-05-10T03:47:23;13.00;99.90
37874;DHT22;23709;48.078;11.684;2023-05-10T03:49:56;12.90;99.90
37874;DHT22;23709;48.078;11.684;2023-05-10T03:52:28;12.90;99.90
37874;DHT22;23709;48.078;11.684;2023-05-10T03:55:01;12.90;99.90
37874;DHT22;23709;48.078;11.684;2023-05-10T03:57:35;12.90;99.90
37874;DHT22;23709;48.078;11.684;2023-05-10T04:00:08;12.90;99.90
37874;DHT22;23709;48.078;11.684;2023-05-10T04:02:50;12.90;99.90
37874;DHT22;23709;48.078;11.684;2023-05-10T04:05:24;12.90;99.90
37874;DHT22;23709;48.078;11.684;2023-05-10T04:07:57;12.80;99.90
37874;DHT22;23709;48.078;11.684;2023-05-10T04:10:29;12.80;99.90
37874;DHT22;23709;48.078;11.684;2023-05-10T04:13:02;12.80;99.90
37874;DHT22;23709;48.078;11.684;2023-05-10T04:15:34;12.80;99.90
37874;DHT22;23709;48.078;11.684;2023-05-10T04:18:08;12.80;99.90
37874;DHT22;23709;48.078;11.684;2023-05-10T04:20:40;12.90;99.90
37874;DHT22;23709;48.078;11.684;2023-05-10T04:23:12;12.80;99.90
37874;DHT22;23709;48.078;11.684;2023-05-10T04:25:46;12.80;99.90
37874;DHT22;23709;48.078;11.684;2023-05-10T04:28:18;12.80;99.90
37874;DHT22;23709;48.078;11.684;2023-05-10T04:30:50;12.80;99.90
37874;DHT22;23709;48.078;11.684;2023-05-10T04:33:22;12.80;99.90
37874;DHT22;23709;48.078;11.684;2023-05-10T04:35:55;12.80;99.90
37874;DHT22;23709;48.078;11.684;2023-05-10T04:38:27;12.70;99.90
37874;DHT22;23709;48.078;11.684;2023-05-10T04:41:10;12.70;99.90
37874;DHT22;23709;48.078;11.684;2023-05-10T04:43:42;12.70;99.90
37874;DHT22;23709;48.078;11.684;2023-05-10T04:46:14;12.70;99.90
37874;DHT22;23709;48.078;11.684;2023-05-10T04:48:46;12.80;99.90
37874;DHT22;23709;48.078;11.684;2023-05-10T04:51:19;12.80;99.90
37874;DHT22;23709;48.078;11.684;2023-05-10T04:53:52;12.80;99.90
37874;DHT22;23709;48.078;11.684;2023-05-10T04:56:37;12.80;99.90
37874;DHT22;23709;48.078;11.684;2023-05-10T04:59:09;12.80;99.90
37874;DHT22;23709;48.078;11.684;2023-05-10T05:01:41;12.70;99.90
37874;DHT22;23709;48.078;11.684;2023-05-10T05:04:13;12.70;99.90
37874;DHT22;23709;48.078;11.684;2023-05-10T05:06:46;12.70;99.90
37874;DHT22;23709;48.078;11.684;2023-05-10T05:09:19;12.70;99.90
37874;DHT22;23709;48.078;11.684;2023-05-10T05:11:51;12.70;99.90
37874;DHT22;23709;48.078;11.684;2023-05-10T05:14:24;12.60;99.90
37874;DHT22;23709;48.078;11.684;2023-05-10T05:17:00;12.60;99.90
37874;DHT22;23709;48.078;11.684;2023-05-10T05:19:32;12.60;99.90
37874;DHT22;23709;48.078;11.684;2023-05-10T05:22:07;12.50;99.90
37874;DHT22;23709;48.078;11.684;2023-05-10T05:24:40;12.50;99.90
37874;DHT22;23709;48.078;11.684;2023-05-10T05:27:12;12.50;99.90
37874;DHT22;23709;48.078;11.684;2023-05-10T05:29:45;12.50;99.90
37874;DHT22;23709;48.078;11.684;2023-05-10T05:32:17;12.50;99.90
37874;DHT22;23709;48.078;11.684;2023-05-10T05:34:50;12.40;99.90
37874;DHT22;23709;48.078;11.684;2023-05-10T05:37:22;12.50;99.90
37874;DHT22;23709;48.078;11.684;2023-05-10T05:39:56;12.50;99.90
37874;DHT22;23709;48.078;11.684;2023-05-10T05:42:28;12.40;99.90
37874;DHT22;23709;48.078;11.684;2023-05-10T05:45:03;12.40;99.90
37874;DHT22;23709;48.078;11.684;2023-05-10T05:47:35;12.40;99.90
37874;DHT22;23709;48.078;11.684;2023-05-10T05:50:07;12.40;99.90
37874;DHT22;23709;48.078;11.684;2023-05-10T05:52:40;12.50;99.90
37874;DHT22;23709;48.078;11.684;2023-05-10T05:55:13;12.50;99.90
37874;DHT22;23709;48.078;11.684;2023-05-10T05:57:45;12.50;99.90
37874;DHT22;23709;48.078;11.684;2023-05-10T06:00:18;12.40;99.90
37874;DHT22;23709;48.078;11.684;2023-05-10T06:02:50;12.40;99.90
37874;DHT22;23709;48.078;11.684;2023-05-10T06:05:22;12.30;99.90
37874;DHT22;23709;48.078;11.684;2023-05-10T06:07:54;12.30;99.90
37874;DHT22;23709;48.078;11.684;2023-05-10T06:10:27;12.30;99.90
37874;DHT22;23709;48.078;11.684;2023-05-10T06:12:59;12.30;99.90
37874;DHT22;23709;48.078;11.684;2023-05-10T06:15:31;12.20;99.90
37874;DHT22;23709;48.078;11.684;2023-05-10T06:18:05;12.20;99.90
37874;DHT22;23709;48.078;11.684;2023-05-10T06:20:37;12.30;99.90
37874;DHT22;23709;48.078;11.684;2023-05-10T06:23:10;12.30;99.90
37874;DHT22;23709;48.078;11.684;2023-05-10T06:25:42;12.30;99.90
37874;DHT22;23709;48.078;11.684;2023-05-10T06:28:14;12.30;99.90
37874;DHT22;23709;48.078;11.684;2023-05-10T06:30:47;12.40;99.90
37874;DHT22;23709;48.078;11.684;2023-05-10T06:33:20;12.40;99.90
37874;DHT22;23709;48.078;11.684;2023-05-10T06:35:52;12.50;99.90
37874;DHT22;23709;48.078;11.684;2023-05-10T06:38:24;12.50;99.90
37874;DHT22;23709;48.078;11.684;2023-05-10T06:40:57;12.60;99.90
37874;DHT22;23709;48.078;11.684;2023-05-10T06:43:29;12.70;99.90
37874;DHT22;23709;48.078;11.684;2023-05-10T06:46:01;12.80;99.90
37874;DHT22;23709;48.078;11.684;2023-05-10T06:48:34;12.80;99.90
37874;DHT22;23709;48.078;11.684;2023-05-10T06:51:06;12.80;99.90
37874;DHT22;23709;48.078;11.684;2023-05-10T06:53:38;13.00;99.90
37874;DHT22;23709;48.078;11.684;2023-05-10T06:56:11;13.00;99.90
37874;DHT22;23709;48.078;11.684;2023-05-10T06:58:44;13.00;99.90
37874;DHT22;23709;48.078;11.684;2023-05-10T07:01:16;13.10;99.90
37874;DHT22;23709;48.078;11.684;2023-05-10T07:03:49;13.20;99.90
37874;DHT22;23709;48.078;11.684;2023-05-10T07:06:22;13.20;99.90
37874;DHT22;23709;48.078;11.684;2023-05-10T07:09:04;13.30;99.90
37874;DHT22;23709;48.078;11.684;2023-05-10T07:11:36;13.30;99.90
37874;DHT22;23709;48.078;11.684;2023-05-10T07:14:09;13.30;99.90
37874;DHT22;23709;48.078;11.684;2023-05-10T07:16:41;13.40;99.90
37874;DHT22;23709;48.078;11.684;2023-05-10T07:19:14;13.40;99.90
37874;DHT22;23709;48.078;11.684;2023-05-10T07:21:47;13.50;99.90
37874;DHT22;23709;48.078;11.684;2023-05-10T07:24:19;13.50;99.90
37874;DHT22;23709;48.078;11.684;2023-05-10T07:26:51;13.60;99.90
37874;DHT22;23709;48.078;11.684;2023-05-10T07:29:23;13.70;99.90
37874;DHT22;23709;48.078;11.684;2023-05-10T07:31:55;13.80;99.90
37874;DHT22;23709;48.078;11.684;2023-05-10T07:34:29;13.80;99.90
37874;DHT22;23709;48.078;11.684;2023-05-10T07:37:02;13.90;99.90
37874;DHT22;23709;48.078;11.684;2023-05-10T07:39:35;13.90;99.90
37874;DHT22;23709;48.078;11.684;2023-05-10T07:42:07;13.90;99.90
37874;DHT22;23709;48.078;11.684;2023-05-10T07:44:40;14.00;99.90
37874;DHT22;23709;48.078;11.684;2023-05-10T07:47:13;14.10;99.90
37874;DHT22;23709;48.078;11.684;2023-05-10T07:49:46;14.20;99.90
37874;DHT22;23709;48.078;11.684;2023-05-10T07:52:19;14.30;99.90
37874;DHT22;23709;48.078;11.684;2023-05-10T07:54:53;14.20;99.90
37874;DHT22;23709;48.078;11.684;2023-05-10T07:57:25;14.30;99.90
37874;DHT22;23709;48.078;11.684;2023-05-10T07:59:58;14.10;99.90
37874;DHT22;23709;48.078;11.684;2023-05-10T08:02:30;14.20;99.90
37874;DHT22;23709;48.078;11.684;2023-05-10T08:05:03;14.30;99.90
37874;DHT22;23709;48.078;11.684;2023-05-10T08:07:37;14.40;99.90
37874;DHT22;23709;48.078;11.684;2023-05-10T08:10:10;14.50;99.90
37874;DHT22;23709;48.078;11.684;2023-05-10T08:12:43;14.60;99.90
37874;DHT22;23709;48.078;11.684;2023-05-10T08:15:15;14.60;99.90
37874;DHT22;23709;48.078;11.684;2023-05-10T08:17:48;14.70;99.90
37874;DHT22;23709;48.078;11.684;2023-05-10T08:20:21;14.70;99.90
37874;DHT22;23709;48.078;11.684;2023-05-10T08:22:53;14.90;99.90
37874;DHT22;23709;48.078;11.684;2023-05-10T08:25:25;15.00;99.90
37874;DHT22;23709;48.078;11.684;2023-05-10T08:27:57;15.10;99.90
37874;DHT22;23709;48.078;11.684;2023-05-10T08:30:30;15.20;99.90
37874;DHT22;23709;48.078;11.684;2023-05-10T08:33:02;15.20;99.90
37874;DHT22;23709;48.078;11.684;2023-05-10T08:35:35;15.30;99.90
37874;DHT22;23709;48.078;11.684;2023-05-10T08:38:08;15.40;99.90
37874;DHT22;23709;48.078;11.684;2023-05-10T08:40:42;15.50;99.90
37874;DHT22;23709;48.078;11.684;2023-05-10T08:43:15;15.60;99.90
37874;DHT22;23709;48.078;11.684;2023-05-10T08:45:49;15.70;99.90
37874;DHT22;23709;48.078;11.684;2023-05-10T08:48:24;15.70;99.90
37874;DHT22;23709;48.078;11.684;2023-05-10T08:50:58;15.40;99.90
37874;DHT22;23709;48.078;11.684;2023-05-10T08:53:33;15.20;99.90
37874;DHT22;23709;48.078;11.684;2023-05-10T08:56:07;15.10;99.90
37874;DHT22;23709;48.078;11.684;2023-05-10T08:58:39;14.90;99.90
37874;DHT22;23709;48.078;11.684;2023-05-10T09:01:12;14.70;99.90
37874;DHT22;23709;48.078;11.684;2023-05-10T09:03:46;14.70;99.90
37874;DHT22;23709;48.078;11.684;2023-05-10T09:06:19;14.60;99.90
37874;DHT22;23709;48.078;11.684;2023-05-10T09:08:53;14.50;99.90
37874;DHT22;23709;48.078;11.684;2023-05-10T09:11:25;14.40;99.90
37874;DHT22;23709;48.078;11.684;2023-05-10T09:14:01;14.40;99.90
37874;DHT22;23709;48.078;11.684;2023-05-10T09:16:33;14.40;99.90
37874;DHT22;23709;48.078;11.684;2023-05-10T09:19:06;14.30;99.90
37874;DHT22;23709;48.078;11.684;2023-05-10T09:21:39;14.30;99.90
37874;DHT22;23709;48.078;11.684;2023-05-10T09:24:12;14.20;99.90
37874;DHT22;23709;48.078;11.684;2023-05-10T09:26:48;14.30;99.90
37874;DHT22;23709;48.078;11.684;2023-05-10T09:29:21;14.50;99.90
37874;DHT22;23709;48.078;11.684;2023-05-10T09:31:53;14.60;99.90
37874;DHT22;23709;48.078;11.684;2023-05-10T09:34:30;14.70;99.90
37874;DHT22;23709;48.078;11.684;2023-05-10T09:37:03;14.80;99.90
37874;DHT22;23709;48.078;11.684;2023-05-10T09:39:38;14.70;99.90
37874;DHT22;23709;48.078;11.684;2023-05-10T09:42:10;14.70;99.90
37874;DHT22;23709;48.078;11.684;2023-05-10T09:44:42;14.70;99.90
37874;DHT22;23709;48.078;11.684;2023-05-10T09:47:18;14.70;99.90
37874;DHT22;23709;48.078;11.684;2023-05-10T09:49:53;14.60;99.90
37874;DHT22;23709;48.078;11.684;2023-05-10T09:52:28;14.60;99.90
37874;DHT22;23709;48.078;11.684;2023-05-10T09:55:00;14.60;99.90
37874;DHT22;23709;48.078;11.684;2023-05-10T09:57:33;14.60;99.90
37874;DHT22;23709;48.078;11.684;2023-05-10T10:00:06;14.60;99.90
37874;DHT22;23709;48.078;11.684;2023-05-10T10:02:53;14.70;99.90
37874;DHT22;23709;48.078;11.684;2023-05-10T10:05:35;14.90;99.90
37874;DHT22;23709;48.078;11.684;2023-05-10T10:08:08;15.20;99.90
37874;DHT22;23709;48.078;11.684;2023-05-10T10:10:41;15.30;99.90
37874;DHT22;23709;48.078;11.684;2023-05-10T10:13:17;15.40;99.90
37874;DHT22;23709;48.078;11.684;2023-05-10T10:15:50;15.60;99.90
37874;DHT22;23709;48.078;11.684;2023-05-10T10:18:24;15.80;99.90
37874;DHT22;23709;48.078;11.684;2023-05-10T10:20:59;15.90;99.90
37874;DHT22;23709;48.078;11.684;2023-05-10T10:23:32;16.00;99.90
37874;DHT22;23709;48.078;11.684;2023-05-10T10:26:04;16.20;99.90
37874;DHT22;23709;48.078;11.684;2023-05-10T10:31:47;16.30;99.90
37874;DHT22;23709;48.078;11.684;2023-05-10T10:34:26;16.40;99.90
37874;DHT22;23709;48.078;11.684;2023-05-10T10:37:05;16.40;99.90
37874;DHT22;23709;48.078;11.684;2023-05-10T10:39:38;16.30;99.90
37874;DHT22;23709;48.078;11.684;2023-05-10T10:42:10;16.20;99.90
37874;DHT22;23709;48.078;11.684;2023-05-10T10:44:42;16.20;99.90
37874;DHT22;23709;48.078;11.684;2023-05-10T10:52:37;16.50;99.90
37874;DHT22;23709;48.078;11.684;2023-05-10T10:55:14;16.70;99.90
37874;DHT22;23709;48.078;11.684;2023-05-10T10:57:53;16.70;99.90
37874;DHT22;23709;48.078;11.684;2023-05-10T11:00:37;16.70;99.90
37874;DHT22;23709;48.078;11.684;2023-05-10T11:03:15;16.80;99.90
37874;DHT22;23709;48.078;11.684;2023-05-10T11:05:58;16.90;99.90
37874;DHT22;23709;48.078;11.684;2023-05-10T11:08:32;16.90;99.90
37874;DHT22;23709;48.078;11.684;2023-05-10T11:11:08;16.80;99.90
37874;DHT22;23709;48.078;11.684;2023-05-10T11:13:46;16.70;99.90
37874;DHT22;23709;48.078;11.684;2023-05-10T11:16:23;16.70;99.90
37874;DHT22;23709;48.078;11.684;2023-05-10T11:19:10;16.60;99.90
37874;DHT22;23709;48.078;11.684;2023-05-10T11:21:51;16.40;99.90
37874;DHT22;23709;48.078;11.684;2023-05-10T11:24:27;16.40;99.90
37874;DHT22;23709;48.078;11.684;2023-05-10T11:27:00;16.30;99.90
37874;DHT22;23709;48.078;11.684;2023-05-10T11:29:33;16.30;99.90
37874;DHT22;23709;48.078;11.684;2023-05-10T11:32:05;16.20;99.90
37874;DHT22;23709;48.078;11.684;2023-05-10T11:34:40;16.00;99.90
37874;DHT22;23709;48.078;11.684;2023-05-10T11:37:12;15.80;99.90
37874;DHT22;23709;48.078;11.684;2023-05-10T11:39:46;15.60;99.90
37874;DHT22;23709;48.078;11.684;2023-05-10T11:42:21;15.20;99.90
37874;DHT22;23709;48.078;11.684;2023-05-10T11:44:54;14.90;99.90
37874;DHT22;23709;48.078;11.684;2023-05-10T11:47:26;14.60;99.90
37874;DHT22;23709;48.078;11.684;2023-05-10T11:49:59;14.40;99.90
37874;DHT22;23709;48.078;11.684;2023-05-10T11:52:36;14.20;99.90
37874;DHT22;23709;48.078;11.684;2023-05-10T11:55:09;14.20;99.90
37874;DHT22;23709;48.078;11.684;2023-05-10T11:57:42;14.10;99.90
37874;DHT22;23709;48.078;11.684;2023-05-10T12:00:17;13.90;99.90
37874;DHT22;23709;48.078;11.684;2023-05-10T12:02:50;13.60;99.90
37874;DHT22;23709;48.078;11.684;2023-05-10T12:05:23;13.40;99.90
37874;DHT22;23709;48.078;11.684;2023-05-10T12:08:11;13.20;99.90
37874;DHT22;23709;48.078;11.684;2023-05-10T12:10:43;13.00;99.90
37874;DHT22;23709;48.078;11.684;2023-05-10T12:13:17;12.90;99.90
37874;DHT22;23709;48.078;11.684;2023-05-10T12:15:50;12.70;99.90
37874;DHT22;23709;48.078;11.684;2023-05-10T12:18:23;12.80;99.90
37874;DHT22;23709;48.078;11.684;2023-05-10T12:21:03;12.80;99.90
37874;DHT22;23709;48.078;11.684;2023-05-10T12:23:36;12.70;99.90
37874;DHT22;23709;48.078;11.684;2023-05-10T12:26:09;12.80;99.90
37874;DHT22;23709;48.078;11.684;2023-05-10T12:28:42;12.70;99.90
37874;DHT22;23709;48.078;11.684;2023-05-10T12:31:15;12.60;99.90
37874;DHT22;23709;48.078;11.684;2023-05-10T12:33:47;12.60;99.90
37874;DHT22;23709;48.078;11.684;2023-05-10T12:36:23;12.50;99.90
37874;DHT22;23709;48.078;11.684;2023-05-10T12:39:02;12.50;99.90
37874;DHT22;23709;48.078;11.684;2023-05-10T12:41:35;12.40;99.90
37874;DHT22;23709;48.078;11.684;2023-05-10T12:44:07;12.30;99.90
37874;DHT22;23709;48.078;11.684;2023-05-10T12:46:39;12.30;99.90
37874;DHT22;23709;48.078;11.684;2023-05-10T12:49:12;12.30;99.90
37874;DHT22;23709;48.078;11.684;2023-05-10T12:51:48;12.30;99.90
37874;DHT22;23709;48.078;11.684;2023-05-10T12:54:20;12.20;99.90
37874;DHT22;23709;48.078;11.684;2023-05-10T12:56:52;12.30;99.90
37874;DHT22;23709;48.078;11.684;2023-05-10T12:59:25;12.30;99.90
37874;DHT22;23709;48.078;11.684;2023-05-10T13:01:58;12.30;99.90
37874;DHT22;23709;48.078;11.684;2023-05-10T13:04:30;12.40;99.90
37874;DHT22;23709;48.078;11.684;2023-05-10T13:07:02;12.50;99.90
37874;DHT22;23709;48.078;11.684;2023-05-10T13:09:34;12.50;99.90
37874;DHT22;23709;48.078;11.684;2023-05-10T13:12:07;12.50;99.90
37874;DHT22;23709;48.078;11.684;2023-05-10T13:14:41;12.60;99.90
37874;DHT22;23709;48.078;11.684;2023-05-10T13:17:13;12.60;99.90
37874;DHT22;23709;48.078;11.684;2023-05-10T13:19:46;12.60;99.90
37874;DHT22;23709;48.078;11.684;2023-05-10T13:22:18;12.60;99.90
37874;DHT22;23709;48.078;11.684;2023-05-10T13:25:03;12.60;99.90
37874;DHT22;23709;48.078;11.684;2023-05-10T13:27:36;12.60;99.90
37874;DHT22;23709;48.078;11.684;2023-05-10T13:30:09;12.60;99.90
37874;DHT22;23709;48.078;11.684;2023-05-10T13:32:42;12.60;99.90
37874;DHT22;23709;48.078;11.684;2023-05-10T13:35:14;12.60;99.90
37874;DHT22;23709;48.078;11.684;2023-05-10T13:37:46;12.50;99.90
37874;DHT22;23709;48.078;11.684;2023-05-10T13:40:18;12.60;99.90
37874;DHT22;23709;48.078;11.684;2023-05-10T13:42:51;12.60;99.90
37874;DHT22;23709;48.078;11.684;2023-05-10T13:45:23;12.60;99.90
37874;DHT22;23709;48.078;11.684;2023-05-10T13:47:55;12.70;99.90
37874;DHT22;23709;48.078;11.684;2023-05-10T13:50:28;12.70;99.90
37874;DHT22;23709;48.078;11.684;2023-05-10T13:53:00;12.60;99.90
37874;DHT22;23709;48.078;11.684;2023-05-10T13:55:32;12.70;99.90
37874;DHT22;23709;48.078;11.684;2023-05-10T13:58:05;12.70;99.90
37874;DHT22;23709;48.078;11.684;2023-05-10T14:00:37;12.60;99.90
37874;DHT22;23709;48.078;11.684;2023-05-10T14:03:09;12.50;99.90
37874;DHT22;23709;48.078;11.684;2023-05-10T14:05:43;12.50;99.90
37874;DHT22;23709;48.078;11.684;2023-05-10T14:08:17;12.50;99.90
37874;DHT22;23709;48.078;11.684;2023-05-10T14:10:50;12.40;99.90
37874;DHT22;23709;48.078;11.684;2023-05-10T14:13:23;12.40;99.90
37874;DHT22;23709;48.078;11.684;2023-05-10T14:15:55;12.30;99.90
37874;DHT22;23709;48.078;11.684;2023-05-10T14:18:28;12.40;99.90
37874;DHT22;23709;48.078;11.684;2023-05-10T14:21:02;12.30;99.90
37874;DHT22;23709;48.078;11.684;2023-05-10T14:23:34;12.30;99.90
37874;DHT22;23709;48.078;11.684;2023-05-10T14:26:06;12.30;99.90
37874;DHT22;23709;48.078;11.684;2023-05-10T14:28:39;12.30;99.90
37874;DHT22;23709;48.078;11.684;2023-05-10T14:31:12;12.40;99.90
37874;DHT22;23709;48.078;11.684;2023-05-10T14:33:44;12.30;99.90
37874;DHT22;23709;48.078;11.684;2023-05-10T14:36:17;12.40;99.90
37874;DHT22;23709;48.078;11.684;2023-05-10T14:38:50;12.30;99.90
37874;DHT22;23709;48.078;11.684;2023-05-10T14:41:23;12.30;99.90
37874;DHT22;23709;48.078;11.684;2023-05-10T14:43:56;12.40;99.90
37874;DHT22;23709;48.078;11.684;2023-05-10T14:46:29;12.30;99.90
37874;DHT22;23709;48.078;11.684;2023-05-10T14:49:02;12.40;99.90
37874;DHT22;23709;48.078;11.684;2023-05-10T14:51:35;12.40;99.90
37874;DHT22;23709;48.078;11.684;2023-05-10T14:54:08;12.40;99.90
37874;DHT22;23709;48.078;11.684;2023-05-10T14:56:41;12.50;99.90
37874;DHT22;23709;48.078;11.684;2023-05-10T14:59:13;12.50;99.90
37874;DHT22;23709;48.078;11.684;2023-05-10T15:01:46;12.40;99.90
37874;DHT22;23709;48.078;11.684;2023-05-10T15:04:19;12.40;99.90
37874;DHT22;23709;48.078;11.684;2023-05-10T15:06:52;12.30;99.90
37874;DHT22;23709;48.078;11.684;2023-05-10T15:09:24;12.30;99.90
37874;DHT22;23709;48.078;11.684;2023-05-10T15:11:56;12.30;99.90
37874;DHT22;23709;48.078;11.684;2023-05-10T15:14:29;12.20;99.90
37874;DHT22;23709;48.078;11.684;2023-05-10T15:17:04;12.30;99.90
37874;DHT22;23709;48.078;11.684;2023-05-10T15:19:37;12.30;99.90
37874;DHT22;23709;48.078;11.684;2023-05-10T15:22:09;12.30;99.90
37874;DHT22;23709;48.078;11.684;2023-05-10T15:24:42;12.20;99.90
37874;DHT22;23709;48.078;11.684;2023-05-10T15:27:14;12.20;99.90
37874;DHT22;23709;48.078;11.684;2023-05-10T15:29:47;12.20;99.90
37874;DHT22;23709;48.078;11.684;2023-05-10T15:32:19;12.20;99.90
37874;DHT22;23709;48.078;11.684;2023-05-10T15:34:51;12.20;99.90
37874;DHT22;23709;48.078;11.684;2023-05-10T15:37:23;12.20;99.90
37874;DHT22;23709;48.078;11.684;2023-05-10T15:39:57;12.10;99.90
37874;DHT22;23709;48.078;11.684;2023-05-10T15:42:37;12.10;99.90
37874;DHT22;23709;48.078;11.684;2023-05-10T15:45:10;12.10;99.90
37874;DHT22;23709;48.078;11.684;2023-05-10T15:47:43;12.10;99.90
37874;DHT22;23709;48.078;11.684;2023-05-10T15:50:16;11.90;99.90
37874;DHT22;23709;48.078;11.684;2023-05-10T15:52:48;11.90;99.90
37874;DHT22;23709;48.078;11.684;2023-05-10T15:55:20;11.90;99.90
37874;DHT22;23709;48.078;11.684;2023-05-10T15:57:53;12.00;99.90
37874;DHT22;23709;48.078;11.684;2023-05-10T16:00:26;11.90;99.90
37874;DHT22;23709;48.078;11.684;2023-05-10T16:02:58;11.80;99.90
37874;DHT22;23709;48.078;11.684;2023-05-10T16:05:30;11.80;99.90
37874;DHT22;23709;48.078;11.684;2023-05-10T16:08:05;11.80;99.90
37874;DHT22;23709;48.078;11.684;2023-05-10T16:10:37;11.90;99.90
37874;DHT22;23709;48.078;11.684;2023-05-10T16:13:09;11.80;99.90
37874;DHT22;23709;48.078;11.684;2023-05-10T16:15:42;11.80;99.90
37874;DHT22;23709;48.078;11.684;2023-05-10T16:18:14;11.90;99.90
37874;DHT22;23709;48.078;11.684;2023-05-10T16:20:49;11.80;99.90